sensor_id;sensor_type;location;lat;lon;timestamp;P1;durP1;ratioP1;P2;durP2;ratioP2
52468;SDS011;38381;53.688;10.776;2023-04-16T00:03:56;18.50;;;13.50;;
52468;SDS011;38381;53.688;10.776;2023-04-16T00:08:56;19.63;;;15.20;;
52468;SDS011;38381;53.688;10.776;2023-04-16T00:13:57;17.83;;;14.18;;
52468;SDS011;38381;53.688;10.776;2023-04-16T00:18:57;17.58;;;14.82;;
52468;SDS011;38381;53.688;10.776;2023-04-16T00:23:58;15.90;;;13.82;;
52468;SDS011;38381;53.688;10.776;2023-04-16T00:28:58;18.75;;;13.18;;
52468;SDS011;38381;53.688;10.776;2023-04-16T00:34:00;16.13;;;13.32;;
52468;SDS011;38381;53.688;10.776;2023-04-16T00:39:00;16.63;;;13.48;;
52468;SDS011;38381;53.688;10.776;2023-04-16T00:44:00;22.73;;;14.93;;
52468;SDS011;38381;53.688;10.776;2023-04-16T00:49:01;15.40;;;13.53;;
52468;SDS011;38381;53.688;10.776;2023-04-16T00:54:02;15.07;;;12.43;;
52468;SDS011;38381;53.688;10.776;2023-04-16T00:59:03;15.88;;;12.75;;
52468;SDS011;38381;53.688;10.776;2023-04-16T01:04:03;16.50;;;11.63;;
52468;SDS011;38381;53.688;10.776;2023-04-16T01:09:06;15.63;;;12.02;;
52468;SDS011;38381;53.688;10.776;2023-04-16T01:14:06;16.17;;;11.93;;
52468;SDS011;38381;53.688;10.776;2023-04-16T01:19:07;13.80;;;12.48;;
52468;SDS011;38381;53.688;10.776;2023-04-16T01:24:07;14.20;;;12.70;;
52468;SDS011;38381;53.688;10.776;2023-04-16T01:29:08;17.23;;;13.03;;
52468;SDS011;38381;53.688;10.776;2023-04-16T01:34:08;15.85;;;11.98;;
52468;SDS011;38381;53.688;10.776;2023-04-16T01:39:09;18.23;;;12.80;;
52468;SDS011;38381;53.688;10.776;2023-04-16T01:44:13;15.93;;;11.98;;
52468;SDS011;38381;53.688;10.776;2023-04-16T01:49:14;13.40;;;11.25;;
52468;SDS011;38381;53.688;10.776;2023-04-16T01:54:14;12.02;;;10.55;;
52468;SDS011;38381;53.688;10.776;2023-04-16T01:59:15;14.00;;;11.60;;
52468;SDS011;38381;53.688;10.776;2023-04-16T02:04:15;14.13;;;10.63;;
52468;SDS011;38381;53.688;10.776;2023-04-16T02:09:16;17.92;;;11.82;;
52468;SDS011;38381;53.688;10.776;2023-04-16T02:14:16;14.23;;;11.32;;
52468;SDS011;38381;53.688;10.776;2023-04-16T02:19:17;13.80;;;11.85;;
52468;SDS011;38381;53.688;10.776;2023-04-16T02:24:18;13.85;;;10.60;;
52468;SDS011;38381;53.688;10.776;2023-04-16T02:29:19;14.77;;;10.50;;
52468;SDS011;38381;53.688;10.776;2023-04-16T02:34:20;15.60;;;12.93;;
52468;SDS011;38381;53.688;10.776;2023-04-16T02:39:20;18.42;;;14.00;;
52468;SDS011;38381;53.688;10.776;2023-04-16T02:44:21;14.57;;;11.38;;
52468;SDS011;38381;53.688;10.776;2023-04-16T02:49:21;15.23;;;12.23;;
52468;SDS011;38381;53.688;10.776;2023-04-16T02:54:22;16.15;;;12.52;;
52468;SDS011;38381;53.688;10.776;2023-04-16T02:59:22;16.77;;;13.60;;
52468;SDS011;38381;53.688;10.776;2023-04-16T03:04:22;14.77;;;11.83;;
52468;SDS011;38381;53.688;10.776;2023-04-16T03:09:23;14.23;;;11.32;;
52468;SDS011;38381;53.688;10.776;2023-04-16T03:14:23;15.98;;;12.35;;
52468;SDS011;38381;53.688;10.776;2023-04-16T03:19:24;14.18;;;12.68;;
52468;SDS011;38381;53.688;10.776;2023-04-16T03:24:24;17.80;;;12.20;;
52468;SDS011;38381;53.688;10.776;2023-04-16T03:29:25;14.98;;;13.23;;
52468;SDS011;38381;53.688;10.776;2023-04-16T03:34:26;16.73;;;12.65;;
52468;SDS011;38381;53.688;10.776;2023-04-16T03:39:26;15.77;;;12.60;;
52468;SDS011;38381;53.688;10.776;2023-04-16T03:44:27;15.50;;;11.13;;
52468;SDS011;38381;53.688;10.776;2023-04-16T03:49:27;14.47;;;11.53;;
52468;SDS011;38381;53.688;10.776;2023-04-16T03:54:27;14.15;;;11.23;;
52468;SDS011;38381;53.688;10.776;2023-04-16T03:59:28;15.43;;;11.43;;
52468;SDS011;38381;53.688;10.776;2023-04-16T04:04:28;13.15;;;10.32;;
52468;SDS011;38381;53.688;10.776;2023-04-16T04:09:29;14.25;;;11.95;;
52468;SDS011;38381;53.688;10.776;2023-04-16T04:14:29;14.32;;;11.02;;
52468;SDS011;38381;53.688;10.776;2023-04-16T04:19:29;16.88;;;13.15;;
52468;SDS011;38381;53.688;10.776;2023-04-16T04:24:30;12.30;;;11.02;;
52468;SDS011;38381;53.688;10.776;2023-04-16T04:29:30;14.30;;;12.82;;
52468;SDS011;38381;53.688;10.776;2023-04-16T04:34:31;15.52;;;12.80;;
52468;SDS011;38381;53.688;10.776;2023-04-16T04:39:31;13.85;;;12.48;;
52468;SDS011;38381;53.688;10.776;2023-04-16T04:44:31;16.27;;;12.43;;
52468;SDS011;38381;53.688;10.776;2023-04-16T04:49:32;18.48;;;12.85;;
52468;SDS011;38381;53.688;10.776;2023-04-16T04:54:32;19.73;;;13.77;;
52468;SDS011;38381;53.688;10.776;2023-04-16T04:59:33;13.77;;;11.95;;
52468;SDS011;38381;53.688;10.776;2023-04-16T05:04:33;14.63;;;13.10;;
52468;SDS011;38381;53.688;10.776;2023-04-16T05:09:35;14.95;;;13.45;;
52468;SDS011;38381;53.688;10.776;2023-04-16T05:14:35;18.17;;;13.52;;
52468;SDS011;38381;53.688;10.776;2023-04-16T05:19:36;17.03;;;13.53;;
52468;SDS011;38381;53.688;10.776;2023-04-16T05:24:36;16.00;;;13.27;;
52468;SDS011;38381;53.688;10.776;2023-04-16T05:29:36;17.02;;;12.85;;
52468;SDS011;38381;53.688;10.776;2023-04-16T05:34:37;15.45;;;13.85;;
52468;SDS011;38381;53.688;10.776;2023-04-16T05:39:37;16.77;;;12.27;;
52468;SDS011;38381;53.688;10.776;2023-04-16T05:44:38;13.70;;;10.90;;
52468;SDS011;38381;53.688;10.776;2023-04-16T05:49:39;14.07;;;12.53;;
52468;SDS011;38381;53.688;10.776;2023-04-16T05:54:40;16.15;;;12.43;;
52468;SDS011;38381;53.688;10.776;2023-04-16T05:59:40;15.63;;;11.45;;
52468;SDS011;38381;53.688;10.776;2023-04-16T06:04:40;18.53;;;11.97;;
52468;SDS011;38381;53.688;10.776;2023-04-16T06:09:41;15.30;;;12.70;;
52468;SDS011;38381;53.688;10.776;2023-04-16T06:14:41;12.20;;;10.68;;
52468;SDS011;38381;53.688;10.776;2023-04-16T06:19:42;13.40;;;10.43;;
52468;SDS011;38381;53.688;10.776;2023-04-16T06:24:42;15.73;;;10.65;;
52468;SDS011;38381;53.688;10.776;2023-04-16T06:29:43;11.88;;;10.43;;
52468;SDS011;38381;53.688;10.776;2023-04-16T06:34:43;12.27;;;10.95;;
52468;SDS011;38381;53.688;10.776;2023-04-16T06:39:43;16.50;;;11.38;;
52468;SDS011;38381;53.688;10.776;2023-04-16T06:44:45;12.88;;;11.32;;
52468;SDS011;38381;53.688;10.776;2023-04-16T06:49:45;14.32;;;11.73;;
52468;SDS011;38381;53.688;10.776;2023-04-16T06:54:46;14.60;;;12.30;;
52468;SDS011;38381;53.688;10.776;2023-04-16T06:59:47;11.43;;;9.95;;
52468;SDS011;38381;53.688;10.776;2023-04-16T07:04:47;12.13;;;10.90;;
52468;SDS011;38381;53.688;10.776;2023-04-16T07:09:48;13.90;;;11.00;;
52468;SDS011;38381;53.688;10.776;2023-04-16T07:14:48;15.37;;;11.53;;
52468;SDS011;38381;53.688;10.776;2023-04-16T07:19:50;15.02;;;10.93;;
52468;SDS011;38381;53.688;10.776;2023-04-16T07:24:51;12.73;;;11.32;;
52468;SDS011;38381;53.688;10.776;2023-04-16T07:29:51;14.43;;;12.93;;
52468;SDS011;38381;53.688;10.776;2023-04-16T07:34:51;17.05;;;12.10;;
52468;SDS011;38381;53.688;10.776;2023-04-16T07:39:52;12.82;;;11.13;;
52468;SDS011;38381;53.688;10.776;2023-04-16T07:44:54;15.17;;;12.50;;
52468;SDS011;38381;53.688;10.776;2023-04-16T07:49:54;15.48;;;10.80;;
52468;SDS011;38381;53.688;10.776;2023-04-16T07:54:55;15.02;;;12.43;;
52468;SDS011;38381;53.688;10.776;2023-04-16T07:59:55;13.32;;;11.70;;
52468;SDS011;38381;53.688;10.776;2023-04-16T08:04:55;13.60;;;12.07;;
52468;SDS011;38381;53.688;10.776;2023-04-16T08:09:56;12.63;;;11.25;;
52468;SDS011;38381;53.688;10.776;2023-04-16T08:14:56;11.47;;;10.30;;
52468;SDS011;38381;53.688;10.776;2023-04-16T08:19:56;14.27;;;12.63;;
52468;SDS011;38381;53.688;10.776;2023-04-16T08:24:57;12.77;;;11.50;;
52468;SDS011;38381;53.688;10.776;2023-04-16T08:29:57;15.23;;;11.87;;
52468;SDS011;38381;53.688;10.776;2023-04-16T08:34:58;16.38;;;12.35;;
52468;SDS011;38381;53.688;10.776;2023-04-16T08:39:59;14.88;;;11.40;;
52468;SDS011;38381;53.688;10.776;2023-04-16T08:50:10;15.60;;;12.73;;
52468;SDS011;38381;53.688;10.776;2023-04-16T08:55:13;14.90;;;13.32;;
52468;SDS011;38381;53.688;10.776;2023-04-16T09:00:15;18.08;;;12.52;;
52468;SDS011;38381;53.688;10.776;2023-04-16T09:05:16;17.38;;;12.75;;
52468;SDS011;38381;53.688;10.776;2023-04-16T09:10:19;16.70;;;12.73;;
52468;SDS011;38381;53.688;10.776;2023-04-16T09:15:21;16.98;;;11.73;;
52468;SDS011;38381;53.688;10.776;2023-04-16T09:20:22;16.00;;;10.82;;
52468;SDS011;38381;53.688;10.776;2023-04-16T09:25:22;13.68;;;11.20;;
52468;SDS011;38381;53.688;10.776;2023-04-16T09:30:24;11.80;;;10.02;;
52468;SDS011;38381;53.688;10.776;2023-04-16T09:35:26;12.35;;;10.35;;
52468;SDS011;38381;53.688;10.776;2023-04-16T09:40:26;16.10;;;11.20;;
52468;SDS011;38381;53.688;10.776;2023-04-16T09:45:30;11.88;;;10.63;;
52468;SDS011;38381;53.688;10.776;2023-04-16T09:50:31;13.02;;;10.15;;
52468;SDS011;38381;53.688;10.776;2023-04-16T09:55:32;13.32;;;9.38;;
52468;SDS011;38381;53.688;10.776;2023-04-16T10:00:33;13.15;;;9.50;;
52468;SDS011;38381;53.688;10.776;2023-04-16T10:05:33;13.27;;;11.20;;
52468;SDS011;38381;53.688;10.776;2023-04-16T10:10:34;12.90;;;10.70;;
52468;SDS011;38381;53.688;10.776;2023-04-16T10:15:34;12.05;;;9.60;;
52468;SDS011;38381;53.688;10.776;2023-04-16T10:20:35;9.98;;;8.95;;
52468;SDS011;38381;53.688;10.776;2023-04-16T10:25:36;12.80;;;9.07;;
52468;SDS011;38381;53.688;10.776;2023-04-16T10:30:37;10.93;;;9.82;;
52468;SDS011;38381;53.688;10.776;2023-04-16T10:35:39;14.60;;;9.88;;
52468;SDS011;38381;53.688;10.776;2023-04-16T10:40:39;11.05;;;9.00;;
52468;SDS011;38381;53.688;10.776;2023-04-16T10:45:44;11.57;;;9.73;;
52468;SDS011;38381;53.688;10.776;2023-04-16T10:50:53;11.45;;;10.30;;
52468;SDS011;38381;53.688;10.776;2023-04-16T10:55:57;12.73;;;9.75;;
52468;SDS011;38381;53.688;10.776;2023-04-16T11:01:05;13.32;;;11.18;;
52468;SDS011;38381;53.688;10.776;2023-04-16T11:06:10;11.63;;;8.80;;
52468;SDS011;38381;53.688;10.776;2023-04-16T11:11:13;12.20;;;9.45;;
52468;SDS011;38381;53.688;10.776;2023-04-16T11:16:13;14.60;;;11.00;;
52468;SDS011;38381;53.688;10.776;2023-04-16T11:21:15;11.35;;;9.43;;
52468;SDS011;38381;53.688;10.776;2023-04-16T11:26:27;12.75;;;10.77;;
52468;SDS011;38381;53.688;10.776;2023-04-16T11:31:28;11.73;;;9.40;;
52468;SDS011;38381;53.688;10.776;2023-04-16T11:36:41;14.13;;;9.20;;
52468;SDS011;38381;53.688;10.776;2023-04-16T11:41:48;11.38;;;9.23;;
52468;SDS011;38381;53.688;10.776;2023-04-16T11:46:51;9.88;;;8.77;;
52468;SDS011;38381;53.688;10.776;2023-04-16T11:51:53;11.65;;;9.55;;
52468;SDS011;38381;53.688;10.776;2023-04-16T11:56:54;14.63;;;9.52;;
52468;SDS011;38381;53.688;10.776;2023-04-16T12:01:54;9.02;;;8.10;;
52468;SDS011;38381;53.688;10.776;2023-04-16T12:07:05;10.30;;;8.55;;
52468;SDS011;38381;53.688;10.776;2023-04-16T12:12:23;13.10;;;7.95;;
52468;SDS011;38381;53.688;10.776;2023-04-16T12:17:25;12.43;;;8.88;;
52468;SDS011;38381;53.688;10.776;2023-04-16T12:22:44;8.95;;;7.28;;
52468;SDS011;38381;53.688;10.776;2023-04-16T12:27:53;9.00;;;7.22;;
52468;SDS011;38381;53.688;10.776;2023-04-16T12:38:15;9.45;;;8.55;;
52468;SDS011;38381;53.688;10.776;2023-04-16T12:43:16;11.90;;;7.65;;
52468;SDS011;38381;53.688;10.776;2023-04-16T12:48:17;11.32;;;7.82;;
52468;SDS011;38381;53.688;10.776;2023-04-16T12:53:17;9.05;;;8.10;;
52468;SDS011;38381;53.688;10.776;2023-04-16T12:58:17;9.15;;;8.23;;
52468;SDS011;38381;53.688;10.776;2023-04-16T13:03:18;9.70;;;8.80;;
52468;SDS011;38381;53.688;10.776;2023-04-16T13:08:20;10.53;;;7.57;;
52468;SDS011;38381;53.688;10.776;2023-04-16T13:13:20;10.52;;;7.65;;
52468;SDS011;38381;53.688;10.776;2023-04-16T13:18:20;13.15;;;9.10;;
52468;SDS011;38381;53.688;10.776;2023-04-16T13:23:22;9.35;;;7.88;;
52468;SDS011;38381;53.688;10.776;2023-04-16T13:28:22;10.32;;;8.75;;
52468;SDS011;38381;53.688;10.776;2023-04-16T13:33:23;11.30;;;8.13;;
52468;SDS011;38381;53.688;10.776;2023-04-16T13:38:23;10.52;;;8.40;;
52468;SDS011;38381;53.688;10.776;2023-04-16T13:43:24;8.75;;;7.85;;
52468;SDS011;38381;53.688;10.776;2023-04-16T13:48:25;10.10;;;8.32;;
52468;SDS011;38381;53.688;10.776;2023-04-16T13:53:25;11.05;;;9.95;;
52468;SDS011;38381;53.688;10.776;2023-04-16T13:58:26;9.10;;;8.20;;
52468;SDS011;38381;53.688;10.776;2023-04-16T14:03:26;12.98;;;10.15;;
52468;SDS011;38381;53.688;10.776;2023-04-16T14:08:27;12.10;;;10.77;;
52468;SDS011;38381;53.688;10.776;2023-04-16T14:13:27;10.20;;;9.27;;
52468;SDS011;38381;53.688;10.776;2023-04-16T14:18:28;9.63;;;7.85;;
52468;SDS011;38381;53.688;10.776;2023-04-16T14:23:28;8.98;;;8.10;;
52468;SDS011;38381;53.688;10.776;2023-04-16T14:28:29;10.48;;;9.35;;
52468;SDS011;38381;53.688;10.776;2023-04-16T14:33:30;9.93;;;8.93;;
52468;SDS011;38381;53.688;10.776;2023-04-16T14:38:31;13.20;;;10.23;;
52468;SDS011;38381;53.688;10.776;2023-04-16T14:43:31;13.38;;;10.15;;
52468;SDS011;38381;53.688;10.776;2023-04-16T14:48:32;12.75;;;10.25;;
52468;SDS011;38381;53.688;10.776;2023-04-16T14:53:32;10.97;;;9.97;;
52468;SDS011;38381;53.688;10.776;2023-04-16T14:58:33;10.65;;;9.55;;
52468;SDS011;38381;53.688;10.776;2023-04-16T15:03:35;11.88;;;10.23;;
52468;SDS011;38381;53.688;10.776;2023-04-16T15:08:35;11.50;;;9.32;;
52468;SDS011;38381;53.688;10.776;2023-04-16T15:13:36;12.00;;;9.15;;
52468;SDS011;38381;53.688;10.776;2023-04-16T15:18:36;10.18;;;9.05;;
52468;SDS011;38381;53.688;10.776;2023-04-16T15:23:37;9.48;;;8.60;;
52468;SDS011;38381;53.688;10.776;2023-04-16T15:28:37;9.00;;;8.07;;
52468;SDS011;38381;53.688;10.776;2023-04-16T15:33:37;10.85;;;8.90;;
52468;SDS011;38381;53.688;10.776;2023-04-16T15:38:38;10.18;;;9.02;;
52468;SDS011;38381;53.688;10.776;2023-04-16T15:43:38;10.53;;;9.53;;
52468;SDS011;38381;53.688;10.776;2023-04-16T15:48:39;10.80;;;9.70;;
52468;SDS011;38381;53.688;10.776;2023-04-16T15:53:39;11.30;;;10.20;;
52468;SDS011;38381;53.688;10.776;2023-04-16T15:58:40;11.32;;;9.77;;
52468;SDS011;38381;53.688;10.776;2023-04-16T16:03:40;11.23;;;8.80;;
52468;SDS011;38381;53.688;10.776;2023-04-16T16:08:41;9.65;;;8.75;;
52468;SDS011;38381;53.688;10.776;2023-04-16T16:13:42;8.55;;;7.75;;
52468;SDS011;38381;53.688;10.776;2023-04-16T16:18:43;9.25;;;8.32;;
52468;SDS011;38381;53.688;10.776;2023-04-16T16:23:43;9.25;;;8.30;;
52468;SDS011;38381;53.688;10.776;2023-04-16T16:28:44;8.15;;;7.35;;
52468;SDS011;38381;53.688;10.776;2023-04-16T16:33:45;9.18;;;7.88;;
52468;SDS011;38381;53.688;10.776;2023-04-16T16:38:45;8.38;;;7.35;;
52468;SDS011;38381;53.688;10.776;2023-04-16T16:43:46;8.02;;;7.22;;
52468;SDS011;38381;53.688;10.776;2023-04-16T16:48:47;10.32;;;9.23;;
52468;SDS011;38381;53.688;10.776;2023-04-16T16:53:47;12.18;;;9.18;;
52468;SDS011;38381;53.688;10.776;2023-04-16T16:58:47;11.88;;;8.50;;
52468;SDS011;38381;53.688;10.776;2023-04-16T17:03:48;12.10;;;9.63;;
52468;SDS011;38381;53.688;10.776;2023-04-16T17:08:48;11.23;;;9.32;;
52468;SDS011;38381;53.688;10.776;2023-04-16T17:13:49;9.50;;;8.20;;
52468;SDS011;38381;53.688;10.776;2023-04-16T17:18:49;13.63;;;10.27;;
52468;SDS011;38381;53.688;10.776;2023-04-16T17:23:50;11.55;;;9.38;;
52468;SDS011;38381;53.688;10.776;2023-04-16T17:28:50;9.95;;;8.88;;
52468;SDS011;38381;53.688;10.776;2023-04-16T17:33:52;9.95;;;8.32;;
52468;SDS011;38381;53.688;10.776;2023-04-16T17:38:52;15.00;;;9.70;;
52468;SDS011;38381;53.688;10.776;2023-04-16T17:43:53;8.97;;;8.07;;
52468;SDS011;38381;53.688;10.776;2023-04-16T17:48:53;10.17;;;9.20;;
52468;SDS011;38381;53.688;10.776;2023-04-16T17:53:53;11.23;;;8.02;;
52468;SDS011;38381;53.688;10.776;2023-04-16T17:58:54;11.40;;;10.23;;
52468;SDS011;38381;53.688;10.776;2023-04-16T18:03:54;9.27;;;8.47;;
52468;SDS011;38381;53.688;10.776;2023-04-16T18:08:55;10.05;;;9.05;;
52468;SDS011;38381;53.688;10.776;2023-04-16T18:13:55;12.15;;;8.93;;
52468;SDS011;38381;53.688;10.776;2023-04-16T18:18:56;11.47;;;9.53;;
52468;SDS011;38381;53.688;10.776;2023-04-16T18:23:56;9.98;;;8.98;;
52468;SDS011;38381;53.688;10.776;2023-04-16T18:28:57;12.05;;;9.10;;
52468;SDS011;38381;53.688;10.776;2023-04-16T18:33:57;10.00;;;8.95;;
52468;SDS011;38381;53.688;10.776;2023-04-16T18:38:58;12.05;;;10.80;;
52468;SDS011;38381;53.688;10.776;2023-04-16T18:43:58;10.98;;;9.82;;
52468;SDS011;38381;53.688;10.776;2023-04-16T18:48:59;12.60;;;9.45;;
52468;SDS011;38381;53.688;10.776;2023-04-16T18:53:59;11.30;;;10.20;;
52468;SDS011;38381;53.688;10.776;2023-04-16T18:59:00;11.55;;;10.10;;
52468;SDS011;38381;53.688;10.776;2023-04-16T19:04:03;9.93;;;8.93;;
52468;SDS011;38381;53.688;10.776;2023-04-16T19:09:03;12.00;;;10.82;;
52468;SDS011;38381;53.688;10.776;2023-04-16T19:14:04;11.68;;;9.55;;
52468;SDS011;38381;53.688;10.776;2023-04-16T19:19:05;12.82;;;9.95;;
52468;SDS011;38381;53.688;10.776;2023-04-16T19:24:05;9.80;;;8.70;;
52468;SDS011;38381;53.688;10.776;2023-04-16T19:29:06;11.20;;;9.27;;
52468;SDS011;38381;53.688;10.776;2023-04-16T19:34:06;13.15;;;10.45;;
52468;SDS011;38381;53.688;10.776;2023-04-16T19:39:07;10.98;;;8.73;;
52468;SDS011;38381;53.688;10.776;2023-04-16T19:44:07;13.13;;;9.82;;
52468;SDS011;38381;53.688;10.776;2023-04-16T19:49:08;10.27;;;8.93;;
52468;SDS011;38381;53.688;10.776;2023-04-16T19:54:08;13.35;;;9.40;;
52468;SDS011;38381;53.688;10.776;2023-04-16T19:59:08;12.75;;;9.57;;
52468;SDS011;38381;53.688;10.776;2023-04-16T20:04:09;13.67;;;9.97;;
52468;SDS011;38381;53.688;10.776;2023-04-16T20:09:10;9.80;;;8.85;;
52468;SDS011;38381;53.688;10.776;2023-04-16T20:14:10;12.17;;;9.63;;
52468;SDS011;38381;53.688;10.776;2023-04-16T20:19:11;11.18;;;9.57;;
52468;SDS011;38381;53.688;10.776;2023-04-16T20:24:15;11.93;;;9.00;;
52468;SDS011;38381;53.688;10.776;2023-04-16T20:29:15;15.73;;;10.45;;
52468;SDS011;38381;53.688;10.776;2023-04-16T20:34:16;13.00;;;11.00;;
52468;SDS011;38381;53.688;10.776;2023-04-16T20:39:16;13.88;;;10.20;;
52468;SDS011;38381;53.688;10.776;2023-04-16T20:49:25;11.98;;;10.27;;
52468;SDS011;38381;53.688;10.776;2023-04-16T20:54:25;13.10;;;9.80;;
52468;SDS011;38381;53.688;10.776;2023-04-16T20:59:26;14.30;;;10.38;;
52468;SDS011;38381;53.688;10.776;2023-04-16T21:04:26;11.60;;;10.50;;
52468;SDS011;38381;53.688;10.776;2023-04-16T21:09:27;10.93;;;9.82;;
52468;SDS011;38381;53.688;10.776;2023-04-16T21:14:27;14.05;;;10.50;;
52468;SDS011;38381;53.688;10.776;2023-04-16T21:19:27;13.05;;;9.57;;
52468;SDS011;38381;53.688;10.776;2023-04-16T21:24:28;15.63;;;12.40;;
52468;SDS011;38381;53.688;10.776;2023-04-16T21:29:30;10.18;;;8.75;;
52468;SDS011;38381;53.688;10.776;2023-04-16T21:34:31;12.20;;;10.88;;
52468;SDS011;38381;53.688;10.776;2023-04-16T21:39:32;12.37;;;9.03;;
52468;SDS011;38381;53.688;10.776;2023-04-16T21:44:32;15.13;;;9.32;;
52468;SDS011;38381;53.688;10.776;2023-04-16T21:49:32;13.87;;;9.33;;
52468;SDS011;38381;53.688;10.776;2023-04-16T21:54:33;12.65;;;9.00;;
52468;SDS011;38381;53.688;10.776;2023-04-16T21:59:33;13.13;;;8.67;;
52468;SDS011;38381;53.688;10.776;2023-04-16T22:04:33;10.13;;;7.90;;
52468;SDS011;38381;53.688;10.776;2023-04-16T22:09:37;12.30;;;9.65;;
52468;SDS011;38381;53.688;10.776;2023-04-16T22:14:38;13.05;;;8.88;;
52468;SDS011;38381;53.688;10.776;2023-04-16T22:19:38;10.20;;;9.13;;
52468;SDS011;38381;53.688;10.776;2023-04-16T22:24:39;9.93;;;8.82;;
52468;SDS011;38381;53.688;10.776;2023-04-16T22:29:39;11.25;;;9.25;;
52468;SDS011;38381;53.688;10.776;2023-04-16T22:34:39;12.25;;;9.00;;
52468;SDS011;38381;53.688;10.776;2023-04-16T22:39:40;11.43;;;10.32;;
52468;SDS011;38381;53.688;10.776;2023-04-16T22:44:40;10.93;;;9.23;;
52468;SDS011;38381;53.688;10.776;2023-04-16T22:49:41;14.02;;;11.10;;
52468;SDS011;38381;53.688;10.776;2023-04-16T22:54:41;14.00;;;10.40;;
52468;SDS011;38381;53.688;10.776;2023-04-16T22:59:41;17.17;;;10.07;;
52468;SDS011;38381;53.688;10.776;2023-04-16T23:04:42;10.38;;;9.32;;
52468;SDS011;38381;53.688;10.776;2023-04-16T23:09:42;10.77;;;9.60;;
52468;SDS011;38381;53.688;10.776;2023-04-16T23:14:43;12.15;;;8.98;;
52468;SDS011;38381;53.688;10.776;2023-04-16T23:19:45;10.37;;;9.27;;
52468;SDS011;38381;53.688;10.776;2023-04-16T23:24:45;10.20;;;9.10;;
52468;SDS011;38381;53.688;10.776;2023-04-16T23:29:45;10.20;;;8.70;;
52468;SDS011;38381;53.688;10.776;2023-04-16T23:34:46;11.63;;;9.30;;
52468;SDS011;38381;53.688;10.776;2023-04-16T23:39:46;10.10;;;7.97;;
52468;SDS011;38381;53.688;10.776;2023-04-16T23:44:47;10.13;;;8.27;;
52468;SDS011;38381;53.688;10.776;2023-04-16T23:49:47;10.60;;;9.55;;
52468;SDS011;38381;53.688;10.776;2023-04-16T23:54:48;9.52;;;8.55;;
52468;SDS011;38381;53.688;10.776;2023-04-16T23:59:48;14.77;;;9.50;;
